createdAt,value
2019-02-17T00:01:04.112Z,142.00
2019-02-17T00:03:38.718Z,147.07
2019-02-17T00:06:10.359Z,144.30
2019-02-17T00:08:41.843Z,151.97
2019-02-17T00:11:15.136Z,141.40
2019-02-17T00:13:46.520Z,157.70
2019-02-17T00:16:18.344Z,144.70
2019-02-17T00:18:51.558Z,165.20
2019-02-17T00:21:24.686Z,155.13
2019-02-17T00:23:56.372Z,136.40
2019-02-17T00:26:27.934Z,157.10
2019-02-17T00:29:00.007Z,172.73
2019-02-17T00:31:31.103Z,167.43
2019-02-17T00:34:02.265Z,161.77
2019-02-17T00:36:33.755Z,159.00
2019-02-17T00:39:05.923Z,150.10
2019-02-17T00:41:37.838Z,166.77
2019-02-17T00:44:10.969Z,145.67
2019-02-17T00:46:43.793Z,152.43
2019-02-17T00:49:17.083Z,140.23
2019-02-17T00:51:48.572Z,152.67
2019-02-17T00:54:19.762Z,154.60
2019-02-17T00:56:50.866Z,149.23
2019-02-17T00:59:28.027Z,162.20
2019-02-17T01:01:59.724Z,153.30
2019-02-17T01:04:30.904Z,131.00
2019-02-17T01:07:02.042Z,128.23
2019-02-17T01:09:33.197Z,151.70
2019-02-17T01:12:04.611Z,153.60
2019-02-17T01:14:35.795Z,135.20
2019-02-17T01:17:06.947Z,161.37
2019-02-17T01:19:38.733Z,140.37
2019-02-17T01:22:09.768Z,157.27
2019-02-17T01:24:40.923Z,138.63
2019-02-17T01:27:12.039Z,142.60
2019-02-17T01:29:43.195Z,122.30
2019-02-17T01:32:16.952Z,120.40
2019-02-17T01:34:48.171Z,128.63
2019-02-17T01:37:19.322Z,116.67
2019-02-17T01:39:56.554Z,123.47
2019-02-17T01:42:27.594Z,114.10
2019-02-17T01:44:58.681Z,125.23
2019-02-17T01:47:29.947Z,116.03
2019-02-17T01:50:03.635Z,121.00
2019-02-17T01:52:34.764Z,124.27
2019-02-17T01:55:06.334Z,121.23
2019-02-17T01:57:37.448Z,108.10
2019-02-17T02:00:12.507Z,129.80
2019-02-17T02:02:43.786Z,106.20
2019-02-17T02:05:17.816Z,118.60
2019-02-17T02:07:50.222Z,117.90
2019-02-17T02:10:21.805Z,112.37
2019-02-17T02:12:54.898Z,116.43
2019-02-17T02:15:26.071Z,116.70
2019-02-17T02:17:59.103Z,114.83
2019-02-17T02:20:32.712Z,109.63
2019-02-17T02:23:03.823Z,120.80
2019-02-17T02:25:34.977Z,117.30
2019-02-17T02:28:06.124Z,119.93
2019-02-17T02:30:37.357Z,139.90
2019-02-17T02:33:09.844Z,144.27
2019-02-17T02:35:42.068Z,142.40
2019-02-17T02:38:14.227Z,135.80
2019-02-17T02:40:45.957Z,138.43
2019-02-17T02:43:17.116Z,133.53
2019-02-17T02:45:49.041Z,124.87
2019-02-17T02:48:21.871Z,137.30
2019-02-17T02:50:53.412Z,126.40
2019-02-17T02:53:28.656Z,134.53
2019-02-17T02:55:59.803Z,113.37
2019-02-17T02:58:30.983Z,121.57
2019-02-17T03:01:05.832Z,121.67
2019-02-17T03:03:36.928Z,101.27
2019-02-17T03:06:34.663Z,105.13
2019-02-17T03:09:07.393Z,93.50
2019-02-17T03:11:38.561Z,105.97
2019-02-17T03:14:10.299Z,107.90
2019-02-17T03:16:42.646Z,35.00
2019-02-17T03:19:13.784Z,27.97
2019-02-17T03:21:46.731Z,29.13
2019-02-17T03:24:19.719Z,29.07
2019-02-17T03:26:51.299Z,31.13
2019-02-17T03:29:23.537Z,28.30
2019-02-17T03:31:55.697Z,27.73
2019-02-17T03:34:28.581Z,30.73
2019-02-17T03:37:00.191Z,35.00
2019-02-17T03:39:31.721Z,29.33
2019-02-17T03:42:03.659Z,29.47
2019-02-17T03:44:36.632Z,28.67
2019-02-17T03:47:09.895Z,27.50
2019-02-17T03:49:41.584Z,32.00
2019-02-17T03:52:13.705Z,31.13
2019-02-17T03:54:45.633Z,31.40
2019-02-17T03:57:20.402Z,32.53
2019-02-17T03:59:53.354Z,32.27
2019-02-17T04:02:24.942Z,31.40
2019-02-17T04:04:56.926Z,30.57
2019-02-17T04:07:30.285Z,32.27
2019-02-17T04:10:02.437Z,29.43
2019-02-17T04:12:34.309Z,33.57
2019-02-17T04:15:06.289Z,29.83
2019-02-17T04:17:37.715Z,30.53
2019-02-17T04:20:08.985Z,30.40
2019-02-17T04:22:40.098Z,29.53
2019-02-17T04:25:12.893Z,32.67
2019-02-17T04:27:45.015Z,31.90
2019-02-17T04:30:28.131Z,30.83
2019-02-17T04:32:48.902Z,34.33
2019-02-17T04:35:22.414Z,32.57
2019-02-17T04:37:55.496Z,34.33
2019-02-17T04:40:26.573Z,34.17
2019-02-17T04:42:58.735Z,33.27
2019-02-17T04:45:29.854Z,36.47
2019-02-17T04:48:00.947Z,32.90
2019-02-17T04:50:33.734Z,35.03
2019-02-17T04:53:04.839Z,34.03
2019-02-17T04:55:37.759Z,32.63
2019-02-17T04:58:12.285Z,38.60
2019-02-17T05:00:43.611Z,35.03
2019-02-17T05:03:14.748Z,35.23
2019-02-17T05:05:45.834Z,31.57
2019-02-17T05:08:16.971Z,32.50
2019-02-17T05:10:48.572Z,28.53
2019-02-17T05:13:19.725Z,31.80
2019-02-17T05:15:52.262Z,35.70
2019-02-17T05:18:23.823Z,30.73
2019-02-17T05:20:55.429Z,32.60
2019-02-17T05:23:26.620Z,32.47
2019-02-17T05:25:58.521Z,31.80
2019-02-17T05:28:29.954Z,35.33
2019-02-17T05:31:01.518Z,39.10
2019-02-17T05:33:32.662Z,40.00
2019-02-17T05:36:03.783Z,40.27
2019-02-17T05:38:34.907Z,41.90
2019-02-17T05:41:06.949Z,46.83
2019-02-17T05:43:38.135Z,49.80
2019-02-17T05:46:12.057Z,50.93
2019-02-17T05:48:43.248Z,55.90
2019-02-17T05:51:14.321Z,58.60
2019-02-17T05:53:45.484Z,56.40
2019-02-17T05:56:18.989Z,53.83
2019-02-17T05:58:50.133Z,51.47
2019-02-17T06:01:22.358Z,49.97
2019-02-17T06:03:55.751Z,51.03
2019-02-17T06:06:26.892Z,53.50
2019-02-17T06:08:59.265Z,54.67
2019-02-17T06:11:30.342Z,50.40
2019-02-17T06:14:01.814Z,60.23
2019-02-17T06:16:32.883Z,57.17
2019-02-17T06:19:04.179Z,55.80
2019-02-17T06:21:35.290Z,53.50
2019-02-17T06:24:10.723Z,55.27
2019-02-17T06:26:41.864Z,53.33
2019-02-17T06:29:15.915Z,55.97
2019-02-17T06:31:48.562Z,54.33
2019-02-17T06:34:19.722Z,53.17
2019-02-17T06:36:50.819Z,55.10
2019-02-17T06:39:21.970Z,64.50
2019-02-17T06:41:53.247Z,74.23
2019-02-17T06:44:24.398Z,67.57
2019-02-17T06:47:00.746Z,72.10
2019-02-17T06:49:32.970Z,69.30
2019-02-17T06:52:04.202Z,76.97
2019-02-17T06:54:37.007Z,77.83
2019-02-17T06:57:17.870Z,75.00
2019-02-17T06:59:49.349Z,78.33
2019-02-17T07:02:20.468Z,77.07
2019-02-17T07:05:12.614Z,76.83
2019-02-17T07:07:43.944Z,74.87
2019-02-17T07:10:15.090Z,82.00
2019-02-17T07:12:46.230Z,82.43
2019-02-17T07:15:17.395Z,87.40
2019-02-17T07:17:48.714Z,91.10
2019-02-17T07:20:20.052Z,84.40
2019-02-17T07:22:51.145Z,87.17
2019-02-17T07:25:29.774Z,93.17
2019-02-17T07:27:55.606Z,89.90
2019-02-17T07:30:26.894Z,95.13
2019-02-17T07:33:03.899Z,101.03
2019-02-17T07:35:35.073Z,99.90
2019-02-17T07:38:06.184Z,92.00
2019-02-17T07:40:37.371Z,102.53
2019-02-17T07:43:08.465Z,97.43
2019-02-17T07:45:39.679Z,103.33
2019-02-17T07:48:10.793Z,106.53
2019-02-17T07:50:45.112Z,106.87
2019-02-17T07:53:16.619Z,96.97
2019-02-17T07:55:48.132Z,103.93
2019-02-17T07:58:19.574Z,107.40
2019-02-17T08:00:51.466Z,104.00
2019-02-17T08:03:24.217Z,104.80
2019-02-17T08:05:55.689Z,107.17
2019-02-17T08:08:27.699Z,109.70
2019-02-17T08:11:04.061Z,116.73
2019-02-17T08:13:34.973Z,109.43
2019-02-17T08:16:06.390Z,114.73
2019-02-17T08:18:37.992Z,107.10
2019-02-17T08:21:15.315Z,110.87
2019-02-17T08:23:47.435Z,107.13
2019-02-17T08:26:19.486Z,109.30
2019-02-17T08:28:51.416Z,103.70
2019-02-17T08:31:24.483Z,113.73
2019-02-17T08:33:57.298Z,114.17
2019-02-17T08:36:30.406Z,114.10
2019-02-17T08:39:02.124Z,122.87
2019-02-17T08:41:33.398Z,119.03
2019-02-17T08:44:04.521Z,124.10
2019-02-17T08:46:37.755Z,115.80
2019-02-17T08:49:09.311Z,129.93
2019-02-17T08:51:40.500Z,106.80
2019-02-17T08:54:11.604Z,131.27
2019-02-17T08:56:44.058Z,125.10
2019-02-17T08:59:15.248Z,135.23
2019-02-17T09:01:46.365Z,120.53
2019-02-17T09:04:17.476Z,126.63
2019-02-17T09:06:48.601Z,110.47
2019-02-17T09:09:20.538Z,93.20
2019-02-17T09:11:52.527Z,64.33
2019-02-17T09:14:23.615Z,51.53
2019-02-17T09:16:54.922Z,47.97
2019-02-17T09:19:27.074Z,51.73
2019-02-17T09:21:58.202Z,51.63
2019-02-17T09:24:30.316Z,53.43
2019-02-17T09:27:03.687Z,57.27
2019-02-17T09:29:34.831Z,54.93
2019-02-17T09:32:15.778Z,59.87
2019-02-17T09:34:38.905Z,58.87
2019-02-17T09:37:12.559Z,61.23
2019-02-17T09:39:44.256Z,65.07
2019-02-17T09:42:16.845Z,65.93
2019-02-17T09:44:48.022Z,66.00
2019-02-17T09:47:21.713Z,59.23
2019-02-17T09:49:53.992Z,66.37
2019-02-17T09:52:25.202Z,68.90
2019-02-17T09:54:56.350Z,79.20
2019-02-17T09:57:28.542Z,76.93
2019-02-17T10:00:02.318Z,80.10
2019-02-17T10:02:33.472Z,80.37
2019-02-17T10:05:05.665Z,80.63
2019-02-17T10:07:37.363Z,81.03
2019-02-17T10:10:12.917Z,84.63
2019-02-17T10:12:44.346Z,86.13
2019-02-17T10:15:16.983Z,96.60
2019-02-17T10:17:48.429Z,92.83
2019-02-17T10:20:21.183Z,91.13
2019-02-17T10:22:53.004Z,93.00
2019-02-17T10:25:25.946Z,89.23
2019-02-17T10:27:57.687Z,94.23
2019-02-17T10:30:30.855Z,99.23
2019-02-17T10:33:03.623Z,97.97
2019-02-17T10:35:36.235Z,99.80
2019-02-17T10:38:10.167Z,106.27
2019-02-17T10:40:42.731Z,106.90
2019-02-17T10:43:14.029Z,113.53
2019-02-17T10:45:46.929Z,120.23
2019-02-17T10:48:19.045Z,113.93
2019-02-17T10:50:51.094Z,103.57
2019-02-17T10:53:22.913Z,109.67
2019-02-17T10:55:55.339Z,104.77
2019-02-17T10:58:27.353Z,99.90
2019-02-17T11:00:58.565Z,111.50
2019-02-17T11:03:31.215Z,103.53
2019-02-17T11:06:02.247Z,102.57
2019-02-17T11:08:33.418Z,109.93
2019-02-17T11:11:04.566Z,94.30
2019-02-17T11:13:35.699Z,112.17
2019-02-17T11:16:06.804Z,98.90
2019-02-17T11:18:37.927Z,117.23
2019-02-17T11:21:08.987Z,75.27
2019-02-17T11:23:40.081Z,78.40
2019-02-17T11:26:11.204Z,71.60
2019-02-17T11:28:42.289Z,80.93
2019-02-17T11:31:13.406Z,60.63
2019-02-17T11:33:44.480Z,76.90
2019-02-17T11:36:15.642Z,63.07
2019-02-17T11:38:47.042Z,73.37
2019-02-17T11:41:18.112Z,74.10
2019-02-17T11:43:49.203Z,71.07
2019-02-17T11:46:20.282Z,62.30
2019-02-17T11:48:51.365Z,71.77
2019-02-17T11:51:22.437Z,61.00
2019-02-17T11:53:53.495Z,94.77
2019-02-17T11:56:24.535Z,57.83
2019-02-17T11:58:55.608Z,60.30
2019-02-17T12:01:26.704Z,78.27
2019-02-17T12:03:57.774Z,94.17
2019-02-17T12:06:28.900Z,50.70
2019-02-17T12:08:59.977Z,50.23
2019-02-17T12:11:31.033Z,46.47
2019-02-17T12:14:02.097Z,55.17
2019-02-17T12:16:36.912Z,40.37
2019-02-17T12:19:05.932Z,35.17
2019-02-17T12:21:48.467Z,36.20
2019-02-17T12:24:26.518Z,31.77
2019-02-17T12:27:10.640Z,39.33
2019-02-17T12:29:44.434Z,29.10
2019-02-17T12:32:15.518Z,31.90
2019-02-17T12:34:46.599Z,31.73
2019-02-17T12:37:17.657Z,33.47
2019-02-17T12:39:49.004Z,30.43
2019-02-17T12:42:20.207Z,32.83
2019-02-17T12:44:51.256Z,34.33
2019-02-17T12:47:22.336Z,35.07
2019-02-17T12:49:53.396Z,33.97
2019-02-17T12:52:24.451Z,31.97
2019-02-17T12:54:55.557Z,31.40
2019-02-17T12:57:26.638Z,32.23
2019-02-17T12:59:57.682Z,30.27
2019-02-17T13:02:28.747Z,27.23
2019-02-17T13:04:59.806Z,33.40
2019-02-17T13:07:30.886Z,29.70
2019-02-17T13:10:01.950Z,27.77
2019-02-17T13:12:33.025Z,27.90
2019-02-17T13:15:04.205Z,29.67
2019-02-17T13:17:35.248Z,25.73
2019-02-17T13:20:07.639Z,24.53
2019-02-17T13:22:38.704Z,27.33
2019-02-17T13:25:11.427Z,27.20
2019-02-17T13:27:42.518Z,26.37
2019-02-17T13:30:18.056Z,23.87
2019-02-17T13:32:49.148Z,25.03
2019-02-17T13:35:20.198Z,23.97
2019-02-17T13:37:51.278Z,24.80
2019-02-17T13:40:22.371Z,22.43
2019-02-17T13:42:53.490Z,27.00
2019-02-17T13:45:24.609Z,23.40
2019-02-17T13:47:55.695Z,24.33
2019-02-17T13:50:26.793Z,21.20
2019-02-17T13:52:57.856Z,22.47
2019-02-17T13:55:29.007Z,22.87
2019-02-17T13:58:00.107Z,25.27
2019-02-17T14:00:31.244Z,19.43
2019-02-17T14:03:04.417Z,21.13
2019-02-17T14:05:35.070Z,22.97
2019-02-17T14:08:06.151Z,21.80
2019-02-17T14:10:37.251Z,23.40
2019-02-17T14:13:08.345Z,25.53
2019-02-17T14:15:39.458Z,26.10
2019-02-17T14:18:10.539Z,22.37
2019-02-17T14:20:41.703Z,24.97
2019-02-17T14:23:12.802Z,29.13
2019-02-17T14:25:43.950Z,22.33
2019-02-17T14:28:15.972Z,23.93
2019-02-17T14:30:47.071Z,25.00
2019-02-17T14:33:18.127Z,26.37
2019-02-17T14:35:49.237Z,25.93
2019-02-17T14:38:20.406Z,31.37
2019-02-17T14:40:51.517Z,33.07
2019-02-17T14:43:22.641Z,27.33
2019-02-17T14:45:53.762Z,47.77
2019-02-17T14:48:24.809Z,58.47
2019-02-17T14:50:55.942Z,71.17
2019-02-17T14:53:27.012Z,91.67
2019-02-17T14:55:58.152Z,94.00
2019-02-17T14:58:29.235Z,120.37
2019-02-17T15:01:00.343Z,170.17
2019-02-17T15:03:31.395Z,151.23
2019-02-17T15:06:02.523Z,166.17
2019-02-17T15:08:33.617Z,146.57
2019-02-17T15:11:04.745Z,156.60
2019-02-17T15:13:35.813Z,158.33
2019-02-17T15:16:06.939Z,154.27
2019-02-17T15:18:38.004Z,120.93
2019-02-17T15:21:09.165Z,57.93
2019-02-17T15:23:40.828Z,45.93
2019-02-17T15:26:11.942Z,43.47
2019-02-17T15:28:50.589Z,38.93
2019-02-17T15:31:15.876Z,37.03
2019-02-17T15:33:46.994Z,36.07
2019-02-17T15:36:18.090Z,37.03
2019-02-17T15:38:49.193Z,32.57
2019-02-17T15:41:20.433Z,31.83
2019-02-17T15:43:52.124Z,29.60
2019-02-17T15:46:23.225Z,29.40
2019-02-17T15:48:54.315Z,29.27
2019-02-17T15:51:25.420Z,26.70
2019-02-17T15:53:56.498Z,25.67
2019-02-17T15:56:27.594Z,29.30
2019-02-17T15:58:58.706Z,27.67
2019-02-17T16:01:29.864Z,27.07
2019-02-17T16:04:00.958Z,29.60
2019-02-17T16:06:32.063Z,31.70
2019-02-17T16:09:03.158Z,32.30
2019-02-17T16:11:34.248Z,28.17
2019-02-17T16:14:05.323Z,32.97
2019-02-17T16:16:36.402Z,41.60
2019-02-17T16:19:07.477Z,44.63
2019-02-17T16:21:38.552Z,44.10
2019-02-17T16:24:09.699Z,49.13
2019-02-17T16:26:40.795Z,51.13
2019-02-17T16:29:11.889Z,52.07
2019-02-17T16:31:42.977Z,49.57
2019-02-17T16:34:14.097Z,47.03
2019-02-17T16:36:45.166Z,42.43
2019-02-17T16:39:16.227Z,44.57
2019-02-17T16:41:47.396Z,40.53
2019-02-17T16:44:18.587Z,41.23
2019-02-17T16:46:49.638Z,36.60
2019-02-17T16:49:20.686Z,40.13
2019-02-17T16:51:51.747Z,37.83
2019-02-17T16:54:22.801Z,44.10
2019-02-17T16:56:53.859Z,52.80
2019-02-17T16:59:25.053Z,58.70
2019-02-17T17:01:56.164Z,73.63
2019-02-17T17:04:27.258Z,65.67
2019-02-17T17:06:58.410Z,61.97
2019-02-17T17:09:29.516Z,87.00
2019-02-17T17:12:00.578Z,289.20
2019-02-17T17:14:31.849Z,331.23
2019-02-17T17:17:02.927Z,299.73
2019-02-17T17:19:34.059Z,299.97
2019-02-17T17:22:05.175Z,319.80
2019-02-17T17:24:36.286Z,335.50
2019-02-17T17:27:07.395Z,327.27
2019-02-17T17:29:38.522Z,332.80
2019-02-17T17:32:09.611Z,339.00
2019-02-17T17:34:40.709Z,318.40
2019-02-17T17:37:11.788Z,311.13
2019-02-17T17:39:42.889Z,312.23
2019-02-17T17:42:14.015Z,315.90
2019-02-17T17:44:45.172Z,307.27
2019-02-17T17:47:16.284Z,312.57
2019-02-17T17:49:47.438Z,319.07
2019-02-17T17:52:18.561Z,309.27
2019-02-17T17:54:49.681Z,293.63
2019-02-17T17:57:20.750Z,291.57
2019-02-17T17:59:51.822Z,276.20
2019-02-17T18:02:22.895Z,280.40
2019-02-17T18:04:54.021Z,278.77
2019-02-17T18:07:25.079Z,278.67
2019-02-17T18:09:56.183Z,288.03
2019-02-17T18:12:27.271Z,304.13
2019-02-17T18:14:58.365Z,291.17
2019-02-17T18:17:29.457Z,285.10
2019-02-17T18:20:00.503Z,296.27
2019-02-17T18:22:31.581Z,293.93
2019-02-17T18:25:02.664Z,282.20
2019-02-17T18:27:33.736Z,275.87
2019-02-17T18:30:05.070Z,258.00
2019-02-17T18:32:36.149Z,261.47
2019-02-17T18:35:07.630Z,278.13
2019-02-17T18:37:38.818Z,229.17
2019-02-17T18:40:11.263Z,241.33
2019-02-17T18:42:42.342Z,260.27
2019-02-17T18:45:13.841Z,295.60
2019-02-17T18:47:44.929Z,315.80
2019-02-17T18:50:16.028Z,326.33
2019-02-17T18:52:47.104Z,312.37
2019-02-17T18:55:18.229Z,328.40
2019-02-17T18:57:51.001Z,317.03
2019-02-17T19:00:22.145Z,313.30
2019-02-17T19:02:53.231Z,315.80
2019-02-17T19:05:31.657Z,333.23
2019-02-17T19:07:57.114Z,323.27
2019-02-17T19:10:28.232Z,292.77
2019-02-17T19:12:59.301Z,276.03
2019-02-17T19:15:30.375Z,287.17
2019-02-17T19:18:01.453Z,288.90
2019-02-17T19:20:32.659Z,249.87
2019-02-17T19:23:04.938Z,230.60
2019-02-17T19:25:36.220Z,216.70
2019-02-17T19:28:07.329Z,215.97
2019-02-17T19:30:38.414Z,231.27
2019-02-17T19:33:09.558Z,209.20
2019-02-17T19:35:42.178Z,234.87
2019-02-17T19:38:13.493Z,235.47
2019-02-17T19:40:44.669Z,228.73
2019-02-17T19:43:15.732Z,245.60
2019-02-17T19:45:46.854Z,247.67
2019-02-17T19:48:17.939Z,244.40
2019-02-17T19:50:49.052Z,233.90
2019-02-17T19:53:20.781Z,213.43
2019-02-17T19:55:52.219Z,223.67
2019-02-17T19:58:23.411Z,218.40
2019-02-17T20:00:54.492Z,227.93
2019-02-17T20:03:40.464Z,219.43
2019-02-17T20:06:12.758Z,222.80
2019-02-17T20:08:44.107Z,216.90
2019-02-17T20:11:15.208Z,238.23
2019-02-17T20:13:46.284Z,224.40
2019-02-17T20:16:17.347Z,222.10
2019-02-17T20:18:48.482Z,229.73
2019-02-17T20:21:19.514Z,222.97
2019-02-17T20:23:50.608Z,212.30
2019-02-17T20:26:21.668Z,200.13
2019-02-17T20:28:57.289Z,219.63
2019-02-17T20:31:25.479Z,188.33
2019-02-17T20:33:57.289Z,216.70
2019-02-17T20:36:28.383Z,219.50
2019-02-17T20:38:59.468Z,193.07
2019-02-17T20:41:31.176Z,188.03
2019-02-17T20:44:02.287Z,205.77
2019-02-17T20:46:35.213Z,198.63
2019-02-17T20:49:09.733Z,192.30
2019-02-17T20:51:42.889Z,209.20
2019-02-17T20:54:15.067Z,201.63
2019-02-17T20:56:47.047Z,209.83
2019-02-17T20:59:19.420Z,208.70
2019-02-17T21:01:52.969Z,218.73
2019-02-17T21:04:25.663Z,203.67
2019-02-17T21:07:00.015Z,189.67
2019-02-17T21:09:31.327Z,210.37
2019-02-17T21:12:02.728Z,200.43
2019-02-17T21:14:36.944Z,205.87
2019-02-17T21:17:08.776Z,208.10
2019-02-17T21:19:39.913Z,210.47
2019-02-17T21:22:10.988Z,199.37
2019-02-17T21:24:42.095Z,198.63
2019-02-17T21:27:13.234Z,193.37
2019-02-17T21:29:44.376Z,190.87
2019-02-17T21:32:15.476Z,183.70
2019-02-17T21:34:46.589Z,189.03
2019-02-17T21:37:17.668Z,190.93
2019-02-17T21:39:48.804Z,210.03
2019-02-17T21:42:19.941Z,217.47
2019-02-17T21:44:51.047Z,208.67
2019-02-17T21:47:22.198Z,210.80
2019-02-17T21:49:53.329Z,198.13
2019-02-17T21:52:24.414Z,196.50
2019-02-17T21:54:56.651Z,207.70
2019-02-17T21:57:28.043Z,234.70
2019-02-17T22:00:00.379Z,226.43
2019-02-17T22:02:32.366Z,230.87
2019-02-17T22:05:03.616Z,226.97
2019-02-17T22:07:35.171Z,228.40
2019-02-17T22:10:06.908Z,217.77
2019-02-17T22:12:38.080Z,201.90
2019-02-17T22:15:13.981Z,217.77
2019-02-17T22:17:44.799Z,192.53
2019-02-17T22:20:15.717Z,197.80
2019-02-17T22:22:46.842Z,207.13
2019-02-17T22:25:18.396Z,193.97
2019-02-17T22:27:49.521Z,211.70
2019-02-17T22:30:20.702Z,216.03
2019-02-17T22:32:52.036Z,233.90
2019-02-17T22:35:23.168Z,191.53
2019-02-17T22:37:55.891Z,208.67
2019-02-17T22:40:27.927Z,209.50
2019-02-17T22:42:59.079Z,233.30
2019-02-17T22:45:31.057Z,251.87
2019-02-17T22:48:02.237Z,237.20
2019-02-17T22:50:33.361Z,242.80
2019-02-17T22:53:04.474Z,211.17
2019-02-17T22:55:35.552Z,216.00
2019-02-17T22:58:06.767Z,211.33
2019-02-17T23:00:48.241Z,205.53
2019-02-17T23:03:19.438Z,192.03
2019-02-17T23:05:51.204Z,199.73
2019-02-17T23:08:22.227Z,212.20
2019-02-17T23:10:53.346Z,215.30
2019-02-17T23:13:24.411Z,208.33
2019-02-17T23:15:55.521Z,216.70
2019-02-17T23:18:26.730Z,203.50
2019-02-17T23:20:57.844Z,224.17
2019-02-17T23:23:28.946Z,231.53
2019-02-17T23:26:00.657Z,219.47
2019-02-17T23:28:32.039Z,222.90
2019-02-17T23:31:03.159Z,222.33
2019-02-17T23:33:34.233Z,197.83
2019-02-17T23:36:05.492Z,221.30
2019-02-17T23:38:37.566Z,219.97
2019-02-17T23:41:08.850Z,217.17
2019-02-17T23:43:39.946Z,213.93
2019-02-17T23:46:11.006Z,221.60
2019-02-17T23:48:42.080Z,215.10
2019-02-17T23:51:13.173Z,207.40
2019-02-17T23:53:44.252Z,230.10
2019-02-17T23:56:15.351Z,221.17
2019-02-17T23:58:46.473Z,203.57
